Map

Track Data

SID SEASON NUMBER BASIN SUBBASIN NAME ISO_TIME NATURE LAT LON WMO_WIND WMO_PRES WMO_AGENCY TRACK_TYPE DIST2LAND LANDFALL IFLAG USA_AGENCY USA_ATCF_ID USA_LAT USA_LON USA_RECORD USA_STATUS USA_WIND USA_PRES USA_SSHS USA_R34_NE USA_R34_SE USA_R34_SW USA_R34_NW USA_R50_NE USA_R50_SE USA_R50_SW USA_R50_NW USA_R64_NE USA_R64_SE USA_R64_SW USA_R64_NW USA_POCI USA_ROCI USA_RMW USA_EYE TOKYO_LAT TOKYO_LON TOKYO_GRADE TOKYO_WIND TOKYO_PRES TOKYO_R50_DIR TOKYO_R50_LONG TOKYO_R50_SHORT TOKYO_R30_DIR TOKYO_R30_LONG TOKYO_R30_SHORT TOKYO_LAND CMA_LAT CMA_LON CMA_CAT CMA_WIND CMA_PRES HKO_LAT HKO_LON HKO_CAT HKO_WIND HKO_PRES NEWDELHI_LAT NEWDELHI_LON NEWDELHI_GRADE NEWDELHI_WIND NEWDELHI_PRES NEWDELHI_CI NEWDELHI_DP NEWDELHI_POCI REUNION_LAT REUNION_LON REUNION_TYPE REUNION_WIND REUNION_PRES REUNION_TNUM REUNION_CI REUNION_RMW REUNION_R34_NE REUNION_R34_SE REUNION_R34_SW REUNION_R34_NW REUNION_R50_NE REUNION_R50_SE REUNION_R50_SW REUNION_R50_NW REUNION_R64_NE REUNION_R64_SE REUNION_R64_SW REUNION_R64_NW BOM_LAT BOM_LON BOM_TYPE BOM_WIND BOM_PRES BOM_TNUM BOM_CI BOM_RMW BOM_R34_NE BOM_R34_SE BOM_R34_SW BOM_R34_NW BOM_R50_NE BOM_R50_SE BOM_R50_SW BOM_R50_NW BOM_R64_NE BOM_R64_SE BOM_R64_SW BOM_R64_NW BOM_ROCI BOM_POCI BOM_EYE BOM_POS_METHOD BOM_PRES_METHOD NADI_LAT NADI_LON NADI_CAT NADI_WIND NADI_PRES WELLINGTON_LAT WELLINGTON_LON WELLINGTON_WIND WELLINGTON_PRES DS824_LAT DS824_LON DS824_STAGE DS824_WIND DS824_PRES TD9636_LAT TD9636_LON TD9636_STAGE TD9636_WIND TD9636_PRES TD9635_LAT TD9635_LON TD9635_WIND TD9635_PRES TD9635_ROCI NEUMANN_LAT NEUMANN_LON NEUMANN_CLASS NEUMANN_WIND NEUMANN_PRES MLC_LAT MLC_LON MLC_CLASS MLC_WIND MLC_PRES USA_GUST BOM_GUST BOM_GUST_PER REUNION_GUST REUNION_GUST_PER USA_SEAHGT USA_SEARAD_NE USA_SEARAD_SE USA_SEARAD_SW USA_SEARAD_NW STORM_SPEED STORM_DIR
1954206N19247 1954 33 EP MM NOT_NAMED 1954-07-25 00:00:00 TS 18.6000 -112.700 75 hurdat_epa main 556 556 O________OO___ hurdat_epa EP041954 18.6000 -112.700 HU 75 1 18.6000 -112.700 TC 75 18.6000 -112.700 4 11 292
1954206N19247 1954 33 EP MM NOT_NAMED 1954-07-25 03:00:00 TS 18.8105 -113.247 main 566 566 P________PP___ EP041954 18.8127 -113.232 HU 75 1 18.8127 -113.232 TC 75 18.8017 -113.306 4 11 291
1954206N19247 1954 33 EP MM NOT_NAMED 1954-07-25 06:00:00 TS 18.9964 -113.820 75 hurdat_epa main 588 588 O________OP___ hurdat_epa EP041954 19.0000 -113.800 HU 75 1 19.0000 -113.800 TC 75 18.9818 -113.901 4 12 286
1954206N19247 1954 33 EP MM NOT_NAMED 1954-07-25 09:00:00 TS 19.1343 -114.426 main 623 623 P________PP___ EP041954 19.1376 -114.415 HU 75 1 19.1376 -114.415 TC 75 19.1210 -114.470 4 11 280
1954206N19247 1954 33 EP MM NOT_NAMED 1954-07-25 12:00:00 TS 19.2000 -115.000 75 hurdat_epa main 663 663 O________OO___ hurdat_epa EP041954 19.2000 -115.000 HU 75 1 19.2000 -115.000 TC 75 19.2000 -115.000 4 10 273
1954206N19247 1954 33 EP MM NOT_NAMED 1954-07-25 15:00:00 TS 19.1792 -115.486 main 704 704 P________PP___ EP041954 19.1723 -115.488 HU 75 1 19.1723 -115.488 TC 75 19.2070 -115.480 4 9 264
1954206N19247 1954 33 EP MM NOT_NAMED 1954-07-25 18:00:00 TS 19.1119 -115.901 75 hurdat_epa main 737 737 O________OP___ hurdat_epa EP041954 19.1000 -115.900 HU 75 1 19.1000 -115.900 TC 75 19.1594 -115.906 4 8 261
1954206N19247 1954 33 EP MM NOT_NAMED 1954-07-25 21:00:00 TS 19.0564 -116.280 main 761 761 P________PP___ EP041954 19.0499 -116.280 HU 75 1 19.0499 -116.280 TC 75 19.0822 -116.279 4 7 260
1954206N19247 1954 33 EP MM NOT_NAMED 1954-07-26 00:00:00 TS 19.0000 -116.600 75 hurdat_epa main 788 788 O________OO___ hurdat_epa EP041954 19.0000 -116.600 HU 75 1 19.0000 -116.600 TC 75 19.0000 -116.600 4 6 259
1954206N19247 1954 33 EP MM NOT_NAMED 1954-07-26 03:00:00 TS 18.9522 -116.870 main 806 806 P________PP___ EP041954 18.9499 -116.872 HU 75 1 18.9499 -116.872 TC 75 18.9615 -116.859 4 5 258
1954206N19247 1954 33 EP MM NOT_NAMED 1954-07-26 06:00:00 TS 18.9043 -117.094 75 hurdat_epa main 828 828 O________OP___ hurdat_epa EP041954 18.9000 -117.100 HU 75 1 18.9000 -117.100 TC 75 18.9217 -117.072 4 4 257
1954206N19247 1954 33 EP MM NOT_NAMED 1954-07-26 09:00:00 TS 18.8601 -117.283 main 841 841 P________PP___ EP041954 18.8574 -117.285 HU 75 1 18.8574 -117.285 TC 75 18.8710 -117.274 4 4 255
1954206N19247 1954 33 EP MM NOT_NAMED 1954-07-26 12:00:00 TS 18.8000 -117.500 75 hurdat_epa main 863 863 O________OO___ hurdat_epa EP041954 18.8000 -117.500 HU 75 1 18.8000 -117.500 TC 75 18.8000 -117.500 4 5 254
1954206N19247 1954 33 EP MM NOT_NAMED 1954-07-26 15:00:00 TS 18.7155 -117.831 main 892 892 P________PP___ EP041954 18.7151 -117.835 HU 75 1 18.7151 -117.835 TC 75 18.7171 -117.812 4 7 253
1954206N19247 1954 33 EP MM NOT_NAMED 1954-07-26 18:00:00 TS 18.6021 -118.190 75 hurdat_epa main 928 928 O________OP___ hurdat_epa EP041954 18.6000 -118.200 HU 75 1 18.6000 -118.200 TC 75 18.6103 -118.150 4 7 249
1954206N19247 1954 33 EP MM NOT_NAMED 1954-07-26 21:00:00 TS 18.4726 -118.515 main 957 957 P________PP___ EP041954 18.4725 -118.522 HU 75 1 18.4725 -118.522 TC 75 18.4733 -118.487 4 7 242
1954206N19247 1954 33 EP MM NOT_NAMED 1954-07-27 00:00:00 TS 18.3000 -118.800 75 hurdat_epa main 995 995 O________OO___ hurdat_epa EP041954 18.3000 -118.800 HU 75 1 18.3000 -118.800 TC 75 18.3000 -118.800 4 6 229
1954206N19247 1954 33 EP MM NOT_NAMED 1954-07-27 03:00:00 TS 18.0641 -119.013 main 1026 1026 P________PP___ EP041954 18.0649 -119.007 HU 75 1 18.0649 -119.007 TC 75 18.0611 -119.038 4 6 218
1954206N19247 1954 33 EP MM NOT_NAMED 1954-07-27 06:00:00 TS 17.7984 -119.210 75 hurdat_epa main 1065 1065 O________OP___ hurdat_epa EP041954 17.8000 -119.200 HU 75 1 17.8000 -119.200 TC 75 17.7919 -119.250 4 7 217
1954206N19247 1954 33 EP MM NOT_NAMED 1954-07-27 09:00:00 TS 17.5333 -119.434 main 1104 1104 P________PP___ EP041954 17.5349 -119.427 HU 75 1 17.5349 -119.427 TC 75 17.5268 -119.463 4 7 223
1954206N19247 1954 33 EP MM NOT_NAMED 1954-07-27 12:00:00 TS 17.3000 -119.700 75 hurdat_epa main 1142 1142 O________OO___ hurdat_epa EP041954 17.3000 -119.700 HU 75 1 17.3000 -119.700 TC 75 17.3000 -119.700 4 7 234
1954206N19247 1954 33 EP MM NOT_NAMED 1954-07-27 15:00:00 TS 17.1234 -120.036 main 1180 1180 P________PP___ EP041954 17.1200 -120.043 HU 75 1 17.1200 -120.043 TC 75 17.1368 -120.012 4 7 246
1954206N19247 1954 33 EP MM NOT_NAMED 1954-07-27 18:00:00 TS 17.0036 -120.390 75 hurdat_epa main 1217 1217 O________OP___ hurdat_epa EP041954 17.0000 -120.400 HU 75 1 17.0000 -120.400 TC 75 17.0178 -120.350 4 7 253
1954206N19247 1954 33 EP MM NOT_NAMED 1954-07-27 21:00:00 TS 16.9299 -120.709 main 1248 1248 P________PP___ EP041954 16.9275 -120.715 HU 75 1 16.9275 -120.715 TC 75 16.9399 -120.688 4 6 260
1954206N19247 1954 33 EP MM NOT_NAMED 1954-07-28 00:00:00 TS 16.9000 -121.000 75 hurdat_epa main 1270 1270 O________OO___ hurdat_epa EP041954 16.9000 -121.000 HU 75 1 16.9000 -121.000 TC 75 16.9000 -121.000 4 5 265
1954206N19247 1954 33 EP MM NOT_NAMED 1954-07-28 03:00:00 TS 16.8841 -121.264 main 1293 1293 P________PP___ EP041954 16.8850 -121.265 HU 75 1 16.8850 -121.265 TC 75 16.8807 -121.258 4 5 270
1954206N19247 1954 33 EP MM NOT_NAMED 1954-07-28 06:00:00 TS 16.8994 -121.497 75 hurdat_epa main 1308 1308 O________OP___ hurdat_epa EP041954 16.9000 -121.500 HU 75 1 16.9000 -121.500 TC 75 16.8972 -121.487 4 4 278
1954206N19247 1954 33 EP MM NOT_NAMED 1954-07-28 09:00:00 TS 16.9420 -121.706 main 1323 1316 P________PP___ EP041954 16.9425 -121.707 HU 75 1 16.9425 -121.707 TC 75 16.9401 -121.698 4 4 285
1954206N19247 1954 33 EP MM NOT_NAMED 1954-07-28 12:00:00 TS 17.0000 -121.900 75 hurdat_epa main 1331 1331 O________OO___ hurdat_epa EP041954 17.0000 -121.900 HU 75 1 17.0000 -121.900 TC 75 17.0000 -121.900 4 4 285
1954206N19247 1954 33 EP MM NOT_NAMED 1954-07-28 15:00:00 TS 17.0453 -122.101 main 1347 1339 P________PP___ EP041954 17.0425 -122.100 HU 75 1 17.0425 -122.100 TC 75 17.0564 -122.103 4 4 285
1954206N19247 1954 33 EP MM NOT_NAMED 1954-07-28 18:00:00 TS 17.1055 -122.300 75 hurdat_epa main 1355 1355 O________OP___ hurdat_epa EP041954 17.1000 -122.300 HU 75 1 17.1000 -122.300 TC 75 17.1273 -122.300 4 4 292
1954206N19247 1954 33 EP MM NOT_NAMED 1954-07-28 21:00:00 TS 17.1959 -122.493 main 1364 1364 P________PP___ EP041954 17.1925 -122.493 HU 75 1 17.1925 -122.493 TC 75 17.2096 -122.497 4 4 297
1954206N19247 1954 33 EP MM NOT_NAMED 1954-07-29 00:00:00 TS 17.3000 -122.700 75 hurdat_epa main 1373 1373 O________OO___ hurdat_epa EP041954 17.3000 -122.700 HU 75 1 17.3000 -122.700 TC 75 17.3000 -122.700 4 5 295
1954206N19247 1954 33 EP MM NOT_NAMED 1954-07-29 03:00:00 TS 17.3978 -122.944 main 1383 1383 P________PP___ EP041954 17.4000 -122.950 HU 75 1 17.4000 -122.950 TC 75 17.3887 -122.918 4 5 293
1954206N19247 1954 33 EP MM NOT_NAMED 1954-07-29 06:00:00 TS 17.4970 -123.189 75 hurdat_epa main 1401 1401 O________OP___ hurdat_epa EP041954 17.5000 -123.200 HU 75 1 17.5000 -123.200 TC 75 17.4849 -123.143 4 5 294
1954206N19247 1954 33 EP MM NOT_NAMED 1954-07-29 09:00:00 TS 17.5917 -123.394 main 1411 1411 P________PP___ EP041954 17.5924 -123.400 HU 75 1 17.5924 -123.400 TC 75 17.5887 -123.371 4 4 297
1954206N19247 1954 33 EP MM NOT_NAMED 1954-07-29 12:00:00 TS 17.7000 -123.600 75 hurdat_epa main 1420 1418 O________OO___ hurdat_epa EP041954 17.7000 -123.600 HU 75 1 17.7000 -123.600 TC 75 17.7000 -123.600 4 5 300
1954206N19247 1954 33 EP MM NOT_NAMED 1954-07-29 15:00:00 TS 17.8452 -123.847 main 1425 1421 P________PP___ EP041954 17.8500 -123.850 HU 75 1 17.8500 -123.850 TC 75 17.8259 -123.837 4 6 302
1954206N19247 1954 33 EP MM NOT_NAMED 1954-07-29 18:00:00 TS 17.9915 -124.094 75 hurdat_epa main 1428 1426 O________OP___ hurdat_epa EP041954 18.0000 -124.100 HU 75 1 18.0000 -124.100 TC 75 17.9575 -124.072 4 5 300
1954206N19247 1954 33 EP MM NOT_NAMED 1954-07-29 21:00:00 TS 18.1030 -124.311 main 1433 1431 P________PP___ EP041954 18.1075 -124.315 HU 75 1 18.1075 -124.315 TC 75 18.0853 -124.296 4 4 298
1954206N19247 1954 33 EP MM NOT_NAMED 1954-07-30 00:00:00 TS 18.2000 -124.500 75 hurdat_epa main 1438 1436 O________OO___ hurdat_epa EP041954 18.2000 -124.500 HU 75 1 18.2000 -124.500 TC 75 18.2000 -124.500 4 4 302
1954206N19247 1954 33 EP MM NOT_NAMED 1954-07-30 03:00:00 TS 18.3038 -124.653 main 1443 1435 P________PP___ EP041954 18.3075 -124.658 HU 75 1 18.3075 -124.658 TC 75 18.2890 -124.635 4 3 305
1954206N19247 1954 33 EP MM NOT_NAMED 1954-07-30 06:00:00 TS 18.3929 -124.791 75 hurdat_epa main 1442 1442 O________OP___ hurdat_epa EP041954 18.4000 -124.800 HU 75 1 18.4000 -124.800 TC 75 18.3643 -124.755 4 3 300
1954206N19247 1954 33 EP MM NOT_NAMED 1954-07-30 09:00:00 TS 18.4464 -124.916 main 1449 1441 P________PP___ EP041954 18.4499 -124.920 HU 75 1 18.4499 -124.920 TC 75 18.4326 -124.898 4 3 290
1954206N19247 1954 33 EP MM NOT_NAMED 1954-07-30 12:00:00 TS 18.5000 -125.100 75 hurdat_epa main 1455 1455 O________OO___ hurdat_epa EP041954 18.5000 -125.100 HU 75 1 18.5000 -125.100 TC 75 18.5000 -125.100 4 5 288
1954206N19247 1954 33 EP MM NOT_NAMED 1954-07-30 15:00:00 TS 18.5992 -125.414 main 1469 1469 P________PP___ EP041954 18.6000 -125.412 HU 75 1 18.6000 -125.412 TC 75 18.5957 -125.418 4 7 287
1954206N19247 1954 33 EP MM NOT_NAMED 1954-07-30 18:00:00 TS 18.6976 -125.799 75 hurdat_epa main 1491 1491 O________OP___ hurdat_epa EP041954 18.7000 -125.800 HU 75 1 18.7000 -125.800 TC 75 18.6880 -125.797 4 8 283
1954206N19247 1954 33 EP MM NOT_NAMED 1954-07-30 21:00:00 TS 18.7703 -126.200 main 1514 1514 P________PP___ EP041954 18.7725 -126.200 HU 75 1 18.7725 -126.200 TC 75 18.7613 -126.202 4 8 278
1954206N19247 1954 33 EP MM NOT_NAMED 1954-07-31 00:00:00 TS 18.8000 -126.600 75 hurdat_epa main 1545 1545 O________OO___ hurdat_epa EP041954 18.8000 -126.600 HU 75 1 18.8000 -126.600 TC 75 18.8000 -126.600 4 7 270
1954206N19247 1954 33 EP MM NOT_NAMED 1954-07-31 03:00:00 TS 18.7706 -126.954 main 1576 1576 P________PP___ EP041954 18.7649 -126.965 HU 75 1 18.7649 -126.965 TC 75 18.7934 -126.911 4 7 262
1954206N19247 1954 33 EP MM NOT_NAMED 1954-07-31 06:00:00 TS 18.7103 -127.283 75 hurdat_epa main 1607 1607 O________OP___ hurdat_epa EP041954 18.7000 -127.300 HU 75 1 18.7000 -127.300 TC 75 18.7515 -127.213 4 6 259
1954206N19247 1954 33 EP MM NOT_NAMED 1954-07-31 09:00:00 TS 18.6626 -127.568 main 1631 1631 P________PP___ EP041954 18.6572 -127.577 HU 75 1 18.6572 -127.577 TC 75 18.6839 -127.533 4 6 259
1954206N19247 1954 33 EP MM NOT_NAMED 1954-07-31 12:00:00 TS 18.6000 -127.900 75 hurdat_epa main 1663 1663 O________OO___ hurdat_epa EP041954 18.6000 -127.900 HU 75 1 18.6000 -127.900 TC 75 18.6000 -127.900 4 8 259
1954206N19247 1954 33 EP MM NOT_NAMED 1954-07-31 15:00:00 TS 18.5114 -128.364 main 1710 1710 P________PP___ EP041954 18.5076 -128.370 HU 75 1 18.5076 -128.370 TC 75 18.5266 -128.341 4 10 258
1954206N19247 1954 33 EP MM NOT_NAMED 1954-07-31 18:00:00 TS 18.4075 -128.886 75 hurdat_epa main 1758 1758 O________OP___ hurdat_epa EP041954 18.4000 -128.900 HU 75 1 18.4000 -128.900 TC 75 18.4374 -128.832 4 10 258
1954206N19247 1954 33 EP MM NOT_NAMED 1954-07-31 21:00:00 TS 18.3118 -129.385 main 1806 1806 P________PP___ EP041954 18.3073 -129.392 HU 75 1 18.3073 -129.392 TC 75 18.3296 -129.357 4 10 258
1954206N19247 1954 33 EP MM NOT_NAMED 1954-08-01 00:00:00 TS 18.2000 -129.900 75 hurdat_epa main 1855 1855 O________OO___ hurdat_epa EP041954 18.2000 -129.900 HU 75 1 18.2000 -129.900 TC 75 18.2000 -129.900 4 10 256
1954206N19247 1954 33 EP MM NOT_NAMED 1954-08-01 03:00:00 TS 18.0614 -130.444 main 1904 1904 P________PP___ EP041954 18.0649 -130.442 HU 75 1 18.0649 -130.442 TC 75 18.0474 -130.448 4 11 254
1954206N19247 1954 33 EP MM NOT_NAMED 1954-08-01 06:00:00 TS 17.8952 -131.000 75 hurdat_epa main 1968 1968 O________OP___ hurdat_epa EP041954 17.9000 -131.000 HU 75 1 17.9000 -131.000 TC 75 17.8760 -130.998 4 11 251
1954206N19247 1954 33 EP MM NOT_NAMED 1954-08-01 09:00:00 TS 17.7045 -131.552 main 2032 2032 P________PP___ EP041954 17.7078 -131.553 HU 75 1 17.7078 -131.553 TC 75 17.6917 -131.549 4 11 249
1954206N19247 1954 33 EP MM NOT_NAMED 1954-08-01 12:00:00 TS 17.5000 -132.100 75 hurdat_epa main 2088 O________OO___ hurdat_epa EP041954 17.5000 -132.100 HU 75 1 17.5000 -132.100 TC 75 17.5000 -132.100 4 11 249

About IBTrACS Database

This database is a web-friendly format of International Best Track Archive for Climate Stewardship (IBTrACS), a global best track data archive curated by NOAA dating back to 1842.

Updated: 2021-12-01